Time;durP1;ratioP1;P1;durP2;ratioP2;P2;SDS_P1;SDS_P2;PMS_P1;PMS_P2;Temp;Humidity;BMP_temperature;BMP_pressure;BME280_temperature;BME280_humidity;BME280_pressure;Samples;Min_cycle;Max_cycle;Signal;HPM_P1;HPM_P2
2023/08/14 00:00:24;;;;;;;5.97;3.30;;;17.30;99.90;;;;;;5047565;28;20033;-76
2023/08/14 00:02:49;;;;;;;3.60;2.63;;;17.30;99.90;;;;;;5038232;28;20139;-76
2023/08/14 00:05:15;;;;;;;5.50;2.70;;;17.30;99.90;;;;;;5039791;28;20535;-77
2023/08/14 00:07:41;;;;;;;4.72;2.47;;;17.20;99.90;;;;;;5062149;28;20037;-77
2023/08/14 00:10:07;;;;;;;3.83;2.65;;;17.20;99.90;;;;;;5036896;28;20112;-77
2023/08/14 00:12:32;;;;;;;5.03;3.10;;;17.10;99.90;;;;;;5042170;28;20065;-77
2023/08/14 00:14:58;;;;;;;5.13;3.30;;;17.10;99.90;;;;;;5043154;28;20500;-77
2023/08/14 00:17:24;;;;;;;4.55;3.30;;;17.10;99.90;;;;;;5033128;28;20038;-77
2023/08/14 00:19:49;;;;;;;7.70;3.80;;;17.10;99.90;;;;;;5044321;28;20064;-77
2023/08/14 00:22:15;;;;;;;5.45;3.70;;;17.10;99.90;;;;;;5039661;28;20123;-76
2023/08/14 00:24:41;;;;;;;4.55;3.03;;;17.10;99.90;;;;;;5047305;28;20076;-77
2023/08/14 00:27:06;;;;;;;4.70;3.42;;;17.00;99.90;;;;;;5063545;28;20049;-77
2023/08/14 00:29:32;;;;;;;5.38;3.17;;;17.00;99.90;;;;;;5038459;28;20052;-77
2023/08/14 00:31:58;;;;;;;4.78;3.20;;;17.00;99.90;;;;;;5037844;28;20045;-77
2023/08/14 00:34:23;;;;;;;3.90;3.08;;;17.00;99.90;;;;;;5047871;28;20124;-77
2023/08/14 00:36:49;;;;;;;5.05;3.33;;;16.90;99.90;;;;;;5042671;28;20068;-77
2023/08/14 00:39:14;;;;;;;6.13;3.50;;;16.90;99.90;;;;;;5049588;28;20049;-77
2023/08/14 00:41:40;;;;;;;4.32;3.58;;;16.90;99.90;;;;;;5044454;28;20379;-77
2023/08/14 00:44:06;;;;;;;5.07;3.40;;;16.90;99.90;;;;;;5052336;28;20049;-77
2023/08/14 00:46:32;;;;;;;6.50;3.67;;;16.90;99.90;;;;;;5047217;28;20052;-77
2023/08/14 00:48:58;;;;;;;4.85;3.67;;;16.90;99.90;;;;;;5046743;28;20045;-77
2023/08/14 00:51:25;;;;;;;5.00;3.65;;;16.90;99.90;;;;;;5040613;28;20041;-77
2023/08/14 00:53:52;;;;;;;6.23;3.53;;;16.80;99.90;;;;;;5044895;28;20053;-77
2023/08/14 00:56:18;;;;;;;;;;;16.80;99.90;;;;;;5053452;28;20095;-76
2023/08/14 00:58:44;;;;;;;4.23;3.67;;;16.80;99.90;;;;;;5045423;28;19924;-77
2023/08/14 01:01:09;;;;;;;4.50;3.53;;;16.70;99.90;;;;;;5060181;28;20516;-78
2023/08/14 01:03:37;;;;;;;4.93;3.50;;;16.70;99.90;;;;;;5061480;28;20121;-77
2023/08/14 01:06:02;;;;;;;4.63;3.72;;;16.80;99.90;;;;;;5040765;28;20124;-77
2023/08/14 01:08:29;;;;;;;4.75;3.72;;;16.70;99.90;;;;;;5044386;28;20474;-77
2023/08/14 01:10:59;;;;;;;5.38;3.58;;;16.80;99.90;;;;;;5047468;28;20055;-77
2023/08/14 01:13:45;;;;;;;6.15;4.25;;;16.80;99.90;;;;;;5035420;28;20555;-77
2023/08/14 01:16:20;;;;;;;6.78;4.88;;;16.90;99.90;;;;;;5043872;28;20057;-77
2023/08/14 01:18:47;;;;;;;7.88;5.13;;;16.90;99.90;;;;;;5041581;28;20045;-78
2023/08/14 01:21:32;;;;;;;7.70;5.57;;;16.90;99.90;;;;;;5043468;28;20110;-78
2023/08/14 01:24:33;;;;;;;8.55;5.78;;;16.90;99.90;;;;;;5043040;28;20053;-78
2023/08/14 01:27:00;;;;;;;10.52;7.20;;;17.00;99.90;;;;;;5024248;28;20059;-77
2023/08/14 01:29:30;;;;;;;10.60;7.35;;;16.90;99.90;;;;;;5046510;28;20041;-77
2023/08/14 01:31:55;;;;;;;11.35;6.78;;;17.00;99.90;;;;;;5046218;28;20055;-77
2023/08/14 01:34:21;;;;;;;8.45;7.00;;;17.00;99.90;;;;;;5039185;28;20049;-77
2023/08/14 01:37:21;;;;;;;9.02;6.88;;;17.00;99.90;;;;;;5033518;28;20140;-76
2023/08/14 01:39:55;;;;;;;9.30;6.95;;;17.00;99.90;;;;;;5025034;28;20048;-76
2023/08/14 01:42:29;;;;;;;8.75;7.40;;;16.90;99.90;;;;;;5045825;28;20049;-77
2023/08/14 01:45:00;;;;;;;12.68;7.55;;;16.90;99.90;;;;;;5047954;28;20094;-77
2023/08/14 01:47:28;;;;;;;9.10;8.15;;;16.90;99.90;;;;;;5038521;28;20052;-77
2023/08/14 01:49:56;;;;;;;8.80;7.90;;;16.80;99.90;;;;;;5048252;28;20053;-77
2023/08/14 01:52:23;;;;;;;9.45;8.10;;;16.80;99.90;;;;;;5054212;28;20503;-77
2023/08/14 01:54:48;;;;;;;10.15;8.48;;;16.70;99.90;;;;;;5048499;28;20497;-77
2023/08/14 01:57:14;;;;;;;10.15;8.82;;;16.70;99.90;;;;;;5044827;28;20052;-77
2023/08/14 01:59:47;;;;;;;10.77;9.40;;;16.80;99.90;;;;;;5036054;28;20041;-77
2023/08/14 02:02:14;;;;;;;10.70;8.85;;;16.80;99.90;;;;;;5040321;28;20049;-77
2023/08/14 02:04:40;;;;;;;11.37;9.97;;;16.80;99.90;;;;;;5034784;28;20459;-77
2023/08/14 02:07:06;;;;;;;10.93;9.80;;;16.70;99.90;;;;;;5050062;28;20048;-77
2023/08/14 02:09:32;;;;;;;10.40;9.30;;;16.70;99.90;;;;;;5044911;28;20041;-77
2023/08/14 02:11:59;;;;;;;11.02;9.82;;;16.70;99.90;;;;;;5043211;28;20077;-77
2023/08/14 02:14:25;;;;;;;11.30;9.73;;;16.70;99.90;;;;;;5047612;28;20045;-77
2023/08/14 02:16:51;;;;;;;11.85;9.80;;;16.60;99.90;;;;;;5061950;28;20087;-77
2023/08/14 02:19:16;;;;;;;12.25;10.98;;;16.60;99.90;;;;;;5040053;28;20678;-77
2023/08/14 02:21:42;;;;;;;15.57;11.15;;;16.60;99.90;;;;;;5036444;28;20041;-77
2023/08/14 02:24:08;;;;;;;13.23;10.88;;;16.70;99.90;;;;;;5047399;28;20075;-77
2023/08/14 02:26:33;;;;;;;12.43;11.13;;;16.70;99.90;;;;;;5042640;28;20036;-77
2023/08/14 02:29:00;;;;;;;11.85;10.35;;;16.70;99.90;;;;;;5044889;28;20041;-77
2023/08/14 02:31:26;;;;;;;13.70;11.48;;;16.70;99.90;;;;;;5052421;28;20080;-76
2023/08/14 02:33:58;;;;;;;12.52;11.23;;;16.70;99.90;;;;;;5037514;28;20080;-76
2023/08/14 02:36:24;;;;;;;11.57;10.32;;;16.60;99.90;;;;;;5062000;28;20129;-77
2023/08/14 02:38:50;;;;;;;11.07;10.07;;;16.60;99.90;;;;;;5042754;28;20056;-76
2023/08/14 02:41:16;;;;;;;13.20;10.90;;;16.60;99.90;;;;;;5050369;28;20037;-77
2023/08/14 02:43:41;;;;;;;11.73;10.02;;;16.60;99.90;;;;;;5038005;28;20049;-77
2023/08/14 02:46:07;;;;;;;11.93;10.65;;;16.50;99.90;;;;;;5052044;28;20618;-76
2023/08/14 02:48:32;;;;;;;11.77;10.30;;;16.50;99.90;;;;;;5045603;28;20052;-76
2023/08/14 02:50:58;;;;;;;12.23;11.00;;;16.50;99.90;;;;;;5044851;28;20110;-76
2023/08/14 02:53:24;;;;;;;11.10;9.80;;;16.50;99.90;;;;;;5042952;28;20037;-76
2023/08/14 02:55:51;;;;;;;12.55;10.30;;;16.40;99.90;;;;;;5049714;28;20125;-77
2023/08/14 02:58:17;;;;;;;12.50;10.77;;;16.40;99.90;;;;;;5037991;28;20044;-76
2023/08/14 03:00:45;;;;;;;12.38;10.07;;;16.40;99.90;;;;;;5036673;28;20045;-76
2023/08/14 03:03:11;;;;;;;11.52;9.80;;;16.40;99.90;;;;;;5046615;28;20077;-77
2023/08/14 03:05:37;;;;;;;10.70;9.60;;;16.30;99.90;;;;;;5036997;28;20045;-77
2023/08/14 03:08:04;;;;;;;10.88;9.80;;;16.40;99.90;;;;;;5049542;28;20138;-76
2023/08/14 03:10:29;;;;;;;10.63;9.53;;;16.30;99.90;;;;;;5044735;28;20112;-76
2023/08/14 03:13:00;;;;;;;11.90;10.05;;;16.30;99.90;;;;;;5049123;28;20885;-76
2023/08/14 03:15:26;;;;;;;11.88;10.68;;;16.20;99.90;;;;;;5036838;28;20086;-77
2023/08/14 03:17:51;;;;;;;12.52;10.15;;;16.20;99.90;;;;;;5044334;28;20049;-76
2023/08/14 03:20:17;;;;;;;12.30;10.18;;;16.20;99.90;;;;;;5041339;28;20045;-77
2023/08/14 03:22:42;;;;;;;11.07;9.60;;;16.20;99.90;;;;;;5045556;28;20128;-76
2023/08/14 03:25:08;;;;;;;11.20;10.02;;;16.20;99.90;;;;;;5047789;28;20048;-77
2023/08/14 03:27:34;;;;;;;11.23;9.85;;;16.20;99.90;;;;;;5044438;28;20062;-77
2023/08/14 03:30:00;;;;;;;11.40;10.20;;;16.20;99.90;;;;;;5040929;28;20057;-76
2023/08/14 03:32:26;;;;;;;11.07;10.07;;;16.20;99.90;;;;;;5044477;28;20373;-76
2023/08/14 03:34:51;;;;;;;12.07;10.60;;;16.20;99.90;;;;;;5045097;28;20931;-77
2023/08/14 03:37:17;;;;;;;11.98;10.13;;;16.20;99.90;;;;;;5046833;28;20477;-77
2023/08/14 03:39:43;;;;;;;12.80;10.25;;;16.20;99.90;;;;;;5040069;28;20057;-77
2023/08/14 03:42:08;;;;;;;14.18;9.82;;;16.20;99.90;;;;;;5047281;28;20115;-77
2023/08/14 03:44:34;;;;;;;13.32;10.20;;;16.20;99.90;;;;;;5043599;28;20049;-77
2023/08/14 03:47:00;;;;;;;11.45;9.93;;;16.10;99.90;;;;;;5046995;28;20484;-77
2023/08/14 03:49:26;;;;;;;12.70;10.65;;;16.20;99.90;;;;;;5035578;28;20659;-76
2023/08/14 03:51:52;;;;;;;11.77;10.13;;;16.20;99.90;;;;;;5038515;28;20450;-77
2023/08/14 03:54:17;;;;;;;12.63;10.32;;;16.20;99.90;;;;;;5041644;28;20052;-77
2023/08/14 03:56:43;;;;;;;12.85;10.70;;;16.30;99.90;;;;;;5040252;28;20060;-77
2023/08/14 03:59:09;;;;;;;13.48;10.85;;;16.30;99.90;;;;;;5035299;28;20042;-77
2023/08/14 04:01:36;;;;;;;11.63;10.27;;;16.30;99.90;;;;;;5035796;28;20045;-77
2023/08/14 04:04:03;;;;;;;13.20;10.35;;;16.40;99.90;;;;;;5033904;28;20542;-77
2023/08/14 04:06:28;;;;;;;12.85;10.02;;;16.40;99.90;;;;;;5039832;28;20392;-77
2023/08/14 04:08:54;;;;;;;10.50;9.40;;;16.40;99.90;;;;;;5046831;28;20033;-77
2023/08/14 04:11:21;;;;;;;11.02;9.90;;;16.40;99.90;;;;;;5035784;28;20041;-77
2023/08/14 04:13:47;;;;;;;13.27;9.80;;;16.30;99.90;;;;;;5040718;28;20041;-77
2023/08/14 04:16:12;;;;;;;11.40;9.32;;;16.30;99.90;;;;;;5043250;28;20052;-77
2023/08/14 04:18:38;;;;;;;12.07;10.13;;;16.30;99.90;;;;;;5059182;28;20113;-77
2023/08/14 04:21:04;;;;;;;14.20;10.50;;;16.30;99.90;;;;;;5041963;28;20531;-77
2023/08/14 04:23:30;;;;;;;11.82;10.30;;;16.30;99.90;;;;;;5046440;28;20183;-77
2023/08/14 04:25:56;;;;;;;12.73;10.07;;;16.30;99.90;;;;;;5044987;28;20045;-77
2023/08/14 04:28:22;;;;;;;11.63;10.10;;;16.30;99.90;;;;;;5019384;28;20391;-77
2023/08/14 04:30:49;;;;;;;11.13;9.82;;;16.30;99.90;;;;;;5039572;28;20038;-76
2023/08/14 04:33:14;;;;;;;15.57;10.40;;;16.30;99.90;;;;;;5042714;28;20049;-77
2023/08/14 04:35:41;;;;;;;13.80;10.43;;;16.30;99.90;;;;;;5046045;28;20048;-77
2023/08/14 04:38:06;;;;;;;14.57;10.75;;;16.40;99.90;;;;;;5037518;28;20045;-77
2023/08/14 04:40:32;;;;;;;12.80;10.38;;;16.40;99.90;;;;;;5042241;28;20049;-77
2023/08/14 04:42:58;;;;;;;14.32;10.20;;;16.40;99.90;;;;;;5041537;28;20044;-77
2023/08/14 04:45:23;;;;;;;12.50;10.82;;;16.50;99.90;;;;;;5044473;28;20056;-76
2023/08/14 04:47:49;;;;;;;11.32;10.15;;;16.50;99.90;;;;;;5037769;28;20029;-77
2023/08/14 04:50:15;;;;;;;12.60;10.85;;;16.50;99.90;;;;;;5046811;28;20489;-76
2023/08/14 04:52:40;;;;;;;13.93;11.07;;;16.50;99.90;;;;;;5035778;28;20132;-76
2023/08/14 04:55:07;;;;;;;14.07;10.30;;;16.50;99.90;;;;;;5039225;28;20048;-77
2023/08/14 04:57:32;;;;;;;16.52;12.45;;;16.50;99.90;;;;;;5031493;28;20085;-76
2023/08/14 04:59:58;;;;;;;15.05;11.77;;;16.60;99.90;;;;;;5045926;28;20107;-76
2023/08/14 05:02:24;;;;;;;12.10;10.70;;;16.60;99.90;;;;;;5037150;28;20049;-76
2023/08/14 05:04:49;;;;;;;12.93;11.05;;;16.60;99.90;;;;;;5037407;28;20057;-76
2023/08/14 05:07:15;;;;;;;14.82;10.98;;;16.50;99.90;;;;;;5038881;28;20043;-72
2023/08/14 05:09:41;;;;;;;12.80;11.20;;;16.60;99.90;;;;;;5046039;28;20523;-73
2023/08/14 05:12:08;;;;;;;13.77;11.38;;;16.60;99.90;;;;;;5034740;28;20505;-73
2023/08/14 05:14:34;;;;;;;12.48;10.70;;;16.50;99.90;;;;;;5036762;28;20049;-73
2023/08/14 05:17:00;;;;;;;13.20;10.23;;;16.50;99.90;;;;;;5038068;28;20133;-73
2023/08/14 05:19:26;;;;;;;13.77;10.75;;;16.60;99.90;;;;;;5043779;28;20132;-73
2023/08/14 05:21:52;;;;;;;14.27;11.07;;;16.60;99.90;;;;;;5037705;28;20045;-73
2023/08/14 05:24:18;;;;;;;13.18;11.13;;;16.60;99.90;;;;;;5044085;28;20045;-73
2023/08/14 05:26:44;;;;;;;13.50;10.60;;;16.60;99.90;;;;;;5033377;28;20051;-73
2023/08/14 05:29:10;;;;;;;13.82;11.20;;;16.60;99.90;;;;;;5039445;28;20044;-73
2023/08/14 05:31:35;;;;;;;13.30;11.65;;;16.70;99.90;;;;;;5038119;28;20111;-73
2023/08/14 05:34:01;;;;;;;14.00;11.30;;;16.70;99.90;;;;;;5045015;28;20049;-72
2023/08/14 05:36:27;;;;;;;14.50;11.15;;;16.80;99.90;;;;;;5041866;28;20701;-79
2023/08/14 05:38:53;;;;;;;14.52;11.00;;;16.80;99.90;;;;;;5042005;28;20049;-72
2023/08/14 05:41:21;;;;;;;14.73;12.20;;;16.90;99.90;;;;;;5041814;28;20044;-72
2023/08/14 05:43:48;;;;;;;12.75;10.63;;;16.90;99.90;;;;;;5040088;28;20053;-72
2023/08/14 05:46:15;;;;;;;13.70;11.23;;;17.00;99.90;;;;;;5034691;28;20130;-72
2023/08/14 05:48:40;;;;;;;13.93;11.43;;;17.10;99.90;;;;;;5050148;28;20056;-72
2023/08/14 05:51:06;;;;;;;12.27;11.00;;;17.10;99.90;;;;;;5036851;28;20127;-72
2023/08/14 05:53:32;;;;;;;13.50;11.73;;;17.20;99.90;;;;;;5040106;28;20068;-72
2023/08/14 05:55:57;;;;;;;13.52;11.10;;;17.30;99.90;;;;;;5045987;28;20122;-72
2023/08/14 05:58:23;;;;;;;13.15;11.65;;;17.30;99.90;;;;;;5050352;28;20041;-72
2023/08/14 06:00:49;;;;;;;16.63;11.90;;;17.40;99.90;;;;;;5034202;28;20069;-72
2023/08/14 06:03:15;;;;;;;13.82;11.38;;;17.50;99.90;;;;;;5045580;28;20049;-72
2023/08/14 06:05:41;;;;;;;14.73;10.30;;;17.50;99.90;;;;;;5041705;28;20119;-72
2023/08/14 06:08:07;;;;;;;12.73;10.40;;;17.60;99.90;;;;;;5054150;28;20051;-72
2023/08/14 06:10:32;;;;;;;12.48;9.98;;;17.60;99.90;;;;;;5039586;28;20030;-72
2023/08/14 06:12:59;;;;;;;11.63;10.40;;;17.70;99.90;;;;;;5037841;28;20091;-72
2023/08/14 06:15:25;;;;;;;13.00;10.43;;;17.70;99.90;;;;;;5038493;28;20905;-72
2023/08/14 06:17:52;;;;;;;12.77;10.38;;;17.80;99.90;;;;;;5042311;28;20120;-73
2023/08/14 06:20:17;;;;;;;13.35;10.35;;;17.90;99.90;;;;;;5045264;28;20071;-73
2023/08/14 06:22:46;;;;;;;13.45;10.02;;;17.90;99.90;;;;;;5040246;28;20411;-72
2023/08/14 06:25:12;;;;;;;12.43;9.90;;;18.00;99.90;;;;;;5041672;28;20131;-73
2023/08/14 06:27:39;;;;;;;12.80;9.90;;;18.10;99.90;;;;;;5045578;28;20115;-77
2023/08/14 06:30:08;;;;;;;10.95;9.35;;;18.20;99.90;;;;;;5035440;28;20044;-78
2023/08/14 06:32:34;;;;;;;11.20;9.00;;;18.30;99.90;;;;;;5024041;28;20041;-76
2023/08/14 06:35:00;;;;;;;11.45;9.15;;;18.40;99.90;;;;;;5044597;28;20045;-77
2023/08/14 06:37:26;;;;;;;12.40;8.80;;;18.40;99.90;;;;;;5036917;28;20070;-77
2023/08/14 06:39:51;;;;;;;10.73;9.20;;;18.50;99.90;;;;;;5039104;28;20051;-77
2023/08/14 06:42:17;;;;;;;10.70;8.23;;;18.50;99.90;;;;;;5058861;28;20391;-77
2023/08/14 06:44:43;;;;;;;10.98;8.07;;;18.60;99.90;;;;;;5040380;28;20037;-77
2023/08/14 06:47:09;;;;;;;9.60;7.05;;;18.70;99.90;;;;;;5031521;28;20037;-77
2023/08/14 06:49:34;;;;;;;9.38;7.03;;;18.80;99.90;;;;;;5043009;28;20542;-75
2023/08/14 06:52:01;;;;;;;9.55;6.15;;;18.80;99.90;;;;;;5032363;28;20475;-76
2023/08/14 06:54:27;;;;;;;9.13;6.15;;;18.90;99.90;;;;;;5037491;28;20114;-77
2023/08/14 06:56:53;;;;;;;8.00;5.60;;;18.90;99.90;;;;;;5034638;28;20049;-78
2023/08/14 06:59:19;;;;;;;8.95;6.10;;;19.00;99.90;;;;;;5039510;28;20047;-77
2023/08/14 07:01:45;;;;;;;10.50;6.05;;;19.00;99.90;;;;;;5036528;28;20064;-78
2023/08/14 07:04:11;;;;;;;9.43;6.55;;;19.10;99.90;;;;;;5038213;28;20048;-74
2023/08/14 07:06:36;;;;;;;8.02;6.55;;;19.10;99.90;;;;;;5044842;28;20053;-73
2023/08/14 07:09:02;;;;;;;9.05;6.38;;;19.10;99.90;;;;;;5046794;28;20044;-74
2023/08/14 07:11:31;;;;;;;10.32;6.13;;;19.10;99.90;;;;;;5042579;28;20076;-73
2023/08/14 07:13:56;;;;;;;9.00;6.57;;;19.20;99.90;;;;;;5046675;28;20091;-75
2023/08/14 07:16:22;;;;;;;10.65;6.20;;;19.20;99.90;;;;;;5041422;28;20038;-73
2023/08/14 07:18:48;;;;;;;8.02;6.20;;;19.20;99.90;;;;;;5047569;28;20041;-74
2023/08/14 07:21:13;;;;;;;9.55;5.85;;;19.20;99.90;;;;;;5047866;28;20080;-74
2023/08/14 07:23:39;;;;;;;8.43;5.82;;;19.30;99.90;;;;;;5039749;28;20075;-74
2023/08/14 07:26:11;;;;;;;8.57;5.70;;;19.30;99.90;;;;;;5049573;28;20041;-74
2023/08/14 07:28:38;;;;;;;7.65;5.55;;;19.30;99.90;;;;;;5054710;28;20150;-74
2023/08/14 07:31:04;;;;;;;8.13;5.40;;;19.40;99.90;;;;;;5049403;28;20041;-74
2023/08/14 07:33:30;;;;;;;9.88;5.75;;;19.40;99.90;;;;;;5043492;28;20044;-74
2023/08/14 07:35:57;;;;;;;6.93;5.57;;;19.50;99.90;;;;;;5040445;28;20492;-75
2023/08/14 07:38:23;;;;;;;9.20;6.50;;;19.50;99.90;;;;;;5050678;28;20080;-75
2023/08/14 07:40:49;;;;;;;10.52;7.00;;;19.50;99.90;;;;;;5048394;28;20593;-75
2023/08/14 07:43:14;;;;;;;12.15;6.43;;;19.60;99.90;;;;;;5045885;28;20106;-78
2023/08/14 07:45:40;;;;;;;9.75;5.95;;;19.60;99.90;;;;;;5047770;28;20127;-78
2023/08/14 07:48:06;;;;;;;10.00;6.93;;;19.60;99.90;;;;;;5047091;28;20435;-78
2023/08/14 07:50:31;;;;;;;8.82;6.18;;;19.60;99.90;;;;;;5048578;28;20045;-76
2023/08/14 07:52:57;;;;;;;8.77;6.20;;;19.70;99.90;;;;;;5038695;28;20041;-76
2023/08/14 07:55:23;;;;;;;9.07;6.60;;;19.70;99.90;;;;;;5039354;28;20045;-76
2023/08/14 07:57:48;;;;;;;11.57;7.10;;;19.80;99.90;;;;;;5063263;28;20381;-78
2023/08/14 08:00:15;;;;;;;10.77;6.43;;;19.80;99.90;;;;;;5047658;28;20060;-76
2023/08/14 08:02:42;;;;;;;9.75;6.47;;;19.80;99.90;;;;;;5043888;28;20525;-77
2023/08/14 08:05:09;;;;;;;7.20;5.35;;;20.00;99.90;;;;;;5040885;28;20053;-75
2023/08/14 08:07:34;;;;;;;7.03;5.30;;;20.10;99.90;;;;;;5049379;28;20090;-72
2023/08/14 08:10:01;;;;;;;9.73;4.93;;;20.30;99.90;;;;;;5045068;28;20506;-78
2023/08/14 08:12:27;;;;;;;9.80;5.63;;;20.40;99.90;;;;;;5037601;28;20116;-74
2023/08/14 08:14:53;;;;;;;7.82;4.80;;;20.40;99.90;;;;;;5043658;28;20039;-74
2023/08/14 08:17:19;;;;;;;7.85;4.57;;;20.50;99.90;;;;;;5055993;28;20383;-76
2023/08/14 08:19:46;;;;;;;9.27;5.20;;;20.70;99.90;;;;;;5040099;28;20041;-76
2023/08/14 08:22:12;;;;;;;8.50;4.55;;;20.80;99.90;;;;;;5044872;28;20056;-76
2023/08/14 08:24:38;;;;;;;7.67;4.07;;;20.90;99.90;;;;;;5046559;28;20052;-76
2023/08/14 08:27:04;;;;;;;7.07;4.18;;;21.00;99.90;;;;;;5047967;28;20303;-75
2023/08/14 08:29:30;;;;;;;7.43;4.28;;;21.00;99.90;;;;;;5042243;28;20492;-76
2023/08/14 08:31:55;;;;;;;7.82;3.83;;;21.10;99.90;;;;;;5039460;28;20473;-75
2023/08/14 08:34:21;;;;;;;5.45;3.35;;;21.20;99.90;;;;;;5049595;28;20319;-77
2023/08/14 08:36:47;;;;;;;7.20;3.67;;;21.20;99.90;;;;;;5043241;28;20109;-74
2023/08/14 08:39:12;;;;;;;8.48;3.80;;;21.30;99.90;;;;;;5048063;28;20045;-73
2023/08/14 08:41:43;;;;;;;7.13;3.30;;;21.40;99.90;;;;;;5049850;28;20060;-73
2023/08/14 08:44:09;;;;;;;6.05;2.88;;;21.40;99.90;;;;;;5061022;28;20045;-74
2023/08/14 08:46:46;;;;;;;6.15;3.13;;;21.40;99.90;;;;;;5046081;28;20049;-74
2023/08/14 08:49:13;;;;;;;8.60;3.55;;;21.50;99.90;;;;;;5042131;28;20095;-73
2023/08/14 08:51:39;;;;;;;7.28;3.55;;;21.60;99.90;;;;;;5047385;28;20041;-75
2023/08/14 08:54:05;;;;;;;6.55;3.08;;;21.70;99.90;;;;;;5047417;28;20396;-74
2023/08/14 08:56:32;;;;;;;9.40;3.00;;;21.80;99.90;;;;;;5063179;28;20032;-72
2023/08/14 08:58:59;;;;;;;4.68;2.78;;;21.90;99.90;;;;;;5048732;28;20262;-76
2023/08/14 09:01:25;;;;;;;5.00;2.63;;;22.00;99.90;;;;;;5049793;28;20123;-75
2023/08/14 09:03:51;;;;;;;6.95;2.83;;;22.10;99.90;;;;;;5065126;28;20061;-76
2023/08/14 09:06:17;;;;;;;4.93;2.45;;;22.20;99.90;;;;;;5044325;28;20033;-75
2023/08/14 09:08:43;;;;;;;8.13;2.78;;;22.20;99.90;;;;;;5051343;28;20174;-75
2023/08/14 09:11:09;;;;;;;4.53;2.20;;;22.30;99.90;;;;;;5050757;28;20123;-75
2023/08/14 09:13:34;;;;;;;6.03;2.55;;;22.40;99.90;;;;;;5047143;28;20041;-75
2023/08/14 09:16:00;;;;;;;5.20;2.42;;;22.50;99.90;;;;;;5044452;28;20127;-78
2023/08/14 09:18:26;;;;;;;6.50;2.30;;;22.50;99.90;;;;;;5043873;28;20128;-77
2023/08/14 09:20:53;;;;;;;4.35;2.55;;;22.60;99.90;;;;;;5050083;28;20378;-76
2023/08/14 09:23:19;;;;;;;6.80;2.70;;;22.60;99.90;;;;;;5044076;28;20056;-76
2023/08/14 09:25:49;;;;;;;6.22;2.67;;;22.60;99.90;;;;;;5046932;28;20499;-79
2023/08/14 09:28:17;;;;;;;7.20;2.40;;;22.70;99.90;;;;;;5066288;28;20051;-77
2023/08/14 09:30:43;;;;;;;7.57;2.90;;;22.80;99.90;;;;;;5051291;28;20080;-78
2023/08/14 09:33:11;;;;;;;9.43;2.37;;;22.90;99.90;;;;;;5051228;28;20041;-77
2023/08/14 09:35:38;;;;;;;6.32;2.53;;;22.90;99.90;;;;;;5050463;28;20079;-76
2023/08/14 09:38:05;;;;;;;6.63;2.58;;;23.00;99.90;;;;;;5051260;28;20073;-75
2023/08/14 09:40:32;;;;;;;7.00;2.75;;;23.00;99.90;;;;;;5042239;28;20073;-74
2023/08/14 09:42:58;;;;;;;5.28;2.15;;;23.10;99.90;;;;;;5041379;28;20057;-75
2023/08/14 09:45:27;;;;;;;6.33;2.70;;;23.10;99.90;;;;;;5039808;28;20182;-76
2023/08/14 09:47:58;;;;;;;5.95;1.85;;;23.20;99.90;;;;;;5045757;28;20042;-75
2023/08/14 09:50:30;;;;;;;6.97;2.40;;;23.30;99.90;;;;;;5052715;28;20361;-76
2023/08/14 09:52:58;;;;;;;6.55;2.20;;;23.40;99.90;;;;;;5051064;28;20089;-76
2023/08/14 09:55:26;;;;;;;6.15;2.53;;;23.40;99.90;;;;;;5045994;28;20053;-74
2023/08/14 09:57:53;;;;;;;4.22;2.00;;;23.50;99.90;;;;;;5044213;28;20045;-74
2023/08/14 10:00:19;;;;;;;5.88;1.95;;;23.50;99.90;;;;;;5043254;28;20069;-74
2023/08/14 10:02:47;;;;;;;7.85;2.35;;;23.60;99.90;;;;;;5049423;28;20163;-73
2023/08/14 10:05:18;;;;;;;5.68;2.05;;;23.60;99.90;;;;;;5047040;28;20048;-75
2023/08/14 10:07:44;;;;;;;4.53;1.85;;;23.70;99.90;;;;;;5047216;28;20047;-76
2023/08/14 10:10:13;;;;;;;5.43;2.10;;;23.70;99.90;;;;;;5048968;28;20044;-73
2023/08/14 10:12:55;;;;;;;5.18;2.20;;;23.70;99.90;;;;;;5050083;28;20395;-77
2023/08/14 10:15:31;;;;;;;5.13;2.00;;;23.80;99.90;;;;;;5037656;28;20055;-74
2023/08/14 10:18:01;;;;;;;4.93;2.10;;;23.80;99.90;;;;;;5047405;28;20353;-73
2023/08/14 10:20:34;;;;;;;5.25;1.88;;;23.90;99.90;;;;;;5048648;28;20431;-73
2023/08/14 10:23:01;;;;;;;5.20;1.98;;;23.90;99.90;;;;;;5047294;28;20131;-73
2023/08/14 10:25:27;;;;;;;;;;;23.90;99.90;;;;;;5050050;28;20053;-74
2023/08/14 10:27:53;;;;;;;4.57;1.90;;;23.90;99.90;;;;;;5049166;28;19932;-74
2023/08/14 10:30:22;;;;;;;5.10;1.80;;;24.00;99.90;;;;;;5043695;28;20380;-80
2023/08/14 10:32:50;;;;;;;5.72;1.70;;;24.10;99.90;;;;;;5036702;28;20052;-74
2023/08/14 10:35:16;;;;;;;6.07;1.83;;;24.20;99.90;;;;;;5058072;28;20045;-74
2023/08/14 10:37:48;;;;;;;4.38;2.00;;;24.20;99.90;;;;;;5042609;28;20555;-74
2023/08/14 10:40:19;;;;;;;5.63;2.20;;;24.30;99.90;;;;;;5043077;28;20041;-88
2023/08/14 10:42:53;;;;;;;5.57;2.20;;;24.40;99.90;;;;;;5046073;28;20212;-83
2023/08/14 10:45:22;;;;;;;7.40;2.03;;;24.50;99.90;;;;;;5058175;28;20072;-80
2023/08/14 10:47:49;;;;;;;6.00;1.95;;;24.50;99.90;;;;;;5046921;28;20048;-79
2023/08/14 10:50:23;;;;;;;5.60;2.08;;;24.60;99.90;;;;;;5047615;28;20052;-79
2023/08/14 10:52:52;;;;;;;5.78;2.20;;;24.70;99.90;;;;;;5047813;28;20049;-78
2023/08/14 10:55:34;;;;;;;3.65;1.63;;;24.80;99.90;;;;;;5043363;28;20044;-79
2023/08/14 10:58:00;;;;;;;6.00;2.00;;;24.80;99.90;;;;;;5042058;28;20048;-79
2023/08/14 11:00:26;;;;;;;5.18;2.20;;;24.90;99.90;;;;;;5048311;28;20052;-79
2023/08/14 11:03:05;;;;;;;6.37;1.73;;;24.90;99.90;;;;;;5049158;28;20060;-77
2023/08/14 11:05:36;;;;;;;5.57;1.80;;;25.10;99.90;;;;;;5046703;28;20129;-80
2023/08/14 11:08:02;;;;;;;6.97;1.80;;;25.20;99.90;;;;;;5048857;28;20565;-78
2023/08/14 11:10:28;;;;;;;5.28;1.70;;;25.20;99.90;;;;;;5048401;28;20053;-78
2023/08/14 11:12:56;;;;;;;5.07;1.80;;;25.20;99.90;;;;;;5042966;28;20037;-74
2023/08/14 11:15:22;;;;;;;4.63;1.63;;;25.20;99.90;;;;;;5041537;28;20047;-74
2023/08/14 11:17:48;;;;;;;8.63;2.20;;;25.20;99.90;;;;;;5033090;28;20045;-74
2023/08/14 11:20:15;;;;;;;5.65;1.92;;;25.20;99.90;;;;;;5041089;28;20040;-74
2023/08/14 11:22:47;;;;;;;5.18;1.80;;;25.30;99.90;;;;;;5042819;28;20123;-74
2023/08/14 11:25:14;;;;;;;5.22;1.77;;;25.50;99.90;;;;;;5035932;28;20106;-77
2023/08/14 11:27:40;;;;;;;4.55;1.98;;;25.50;99.90;;;;;;5041639;28;20070;-85
2023/08/14 11:30:06;;;;;;;5.20;1.83;;;25.60;99.90;;;;;;5046452;28;20400;-88
2023/08/14 11:32:32;;;;;;;5.57;2.00;;;25.60;99.90;;;;;;5047589;28;20057;-90
2023/08/14 11:34:58;;;;;;;5.30;2.13;;;25.70;99.90;;;;;;5041853;28;20558;-80
2023/08/14 11:37:23;;;;;;;3.57;1.43;;;25.60;99.90;;;;;;5039295;28;20042;-89
2023/08/14 11:39:49;;;;;;;4.60;1.80;;;25.50;99.90;;;;;;5046583;28;20053;-84
2023/08/14 11:42:18;;;;;;;5.47;1.63;;;25.30;99.90;;;;;;5045768;28;20041;-83
2023/08/14 11:44:43;;;;;;;6.70;2.10;;;25.40;99.90;;;;;;5048559;28;20051;-84
2023/08/14 11:47:09;;;;;;;3.33;1.58;;;25.60;99.90;;;;;;5049583;28;20045;-88
2023/08/14 11:49:37;;;;;;;6.78;1.80;;;25.70;99.90;;;;;;5065070;28;20036;-88
2023/08/14 11:52:03;;;;;;;4.72;1.83;;;25.90;99.90;;;;;;5050247;28;20100;-83
2023/08/14 11:54:30;;;;;;;5.60;2.15;;;26.00;99.90;;;;;;5046910;28;20046;-84
2023/08/14 11:56:56;;;;;;;7.00;2.22;;;26.00;99.90;;;;;;5043957;28;20051;-82
2023/08/14 11:59:21;;;;;;;5.13;2.03;;;25.90;99.90;;;;;;5061103;28;20124;-81
2023/08/14 12:01:47;;;;;;;5.13;1.87;;;25.80;99.90;;;;;;5048593;28;20061;-80
2023/08/14 12:04:13;;;;;;;4.63;1.80;;;25.90;99.90;;;;;;5048525;28;20491;-82
2023/08/14 12:06:39;;;;;;;7.23;2.13;;;25.90;99.90;;;;;;5047826;28;20062;-76
2023/08/14 12:09:10;;;;;;;5.00;1.90;;;26.00;99.90;;;;;;5045481;28;20049;-81
2023/08/14 12:11:37;;;;;;;5.80;1.80;;;26.10;99.90;;;;;;5044786;28;20049;-79
2023/08/14 12:14:05;;;;;;;6.03;1.80;;;26.20;99.90;;;;;;5036738;28;20056;-81
2023/08/14 12:16:31;;;;;;;6.35;2.28;;;26.30;99.90;;;;;;5047578;28;20037;-80
2023/08/14 12:18:56;;;;;;;5.93;1.63;;;26.30;99.90;;;;;;5034504;28;20045;-80
2023/08/14 12:21:27;;;;;;;5.37;1.90;;;26.20;99.90;;;;;;5047127;28;20059;-83
2023/08/14 12:23:55;;;;;;;4.57;1.70;;;26.30;99.90;;;;;;5053966;28;20496;-83
2023/08/14 12:26:21;;;;;;;5.70;1.95;;;26.40;99.90;;;;;;5043544;28;20048;-82
2023/08/14 12:28:47;;;;;;;4.80;1.90;;;26.50;99.90;;;;;;5044410;28;20036;-78
2023/08/14 12:31:14;;;;;;;4.70;1.73;;;26.50;99.90;;;;;;5042152;28;20048;-80
2023/08/14 12:33:41;;;;;;;6.75;2.20;;;26.60;99.90;;;;;;5043794;28;20041;-79
2023/08/14 12:36:10;;;;;;;4.20;1.83;;;26.70;99.90;;;;;;5046866;28;20041;-82
2023/08/14 12:38:37;;;;;;;6.65;2.22;;;26.80;99.90;;;;;;5048342;28;20038;-85